Time;durP1;ratioP1;P1;durP2;ratioP2;P2;SDS_P1;SDS_P2;PMS_P1;PMS_P2;Temp;Humidity;BMP_temperature;BMP_pressure;BME280_temperature;BME280_humidity;BME280_pressure;Samples;Min_cycle;Max_cycle;Signal;HPM_P1;HPM_P2
2022/08/27 00:00:14;;;;;;;6.28;1.98;;;;;;;;;;5014535;28;90445;-75
2022/08/27 00:02:41;;;;;;;6.65;2.05;;;;;;;;;;5017125;28;89111;-76
2022/08/27 00:05:08;;;;;;;9.10;2.20;;;;;;;;;;5012474;28;90974;-76
2022/08/27 00:07:35;;;;;;;5.32;1.83;;;;;;;;;;5011464;28;89255;-76
2022/08/27 00:10:02;;;;;;;6.95;2.25;;;;;;;;;;5008759;28;89484;-75
2022/08/27 00:12:29;;;;;;;4.60;1.95;;;;;;;;;;5013101;28;89893;-76
2022/08/27 00:14:55;;;;;;;13.20;2.55;;;;;;;;;;5012708;28;90918;-75
2022/08/27 00:17:21;;;;;;;3.28;1.75;;;;;;;;;;5012455;28;89565;-75
2022/08/27 00:19:47;;;;;;;6.38;2.15;;;;;;;;;;5012460;28;90048;-76
2022/08/27 00:22:14;;;;;;;8.13;2.08;;;;;;;;;;5014207;28;88908;-76
2022/08/27 00:24:40;;;;;;;8.90;1.92;;;;;;;;;;5015664;28;89166;-76
2022/08/27 00:27:14;;;;;;;6.10;2.17;;;;;;;;;;5011241;28;88964;-75
2022/08/27 00:29:40;;;;;;;7.70;2.17;;;;;;;;;;5012444;28;89844;-75
2022/08/27 00:32:07;;;;;;;21.65;2.10;;;;;;;;;;5013137;28;90079;-76
2022/08/27 00:34:34;;;;;;;10.95;2.20;;;;;;;;;;5013126;28;89136;-76
2022/08/27 00:37:02;;;;;;;9.63;2.42;;;;;;;;;;5012183;28;90401;-76
2022/08/27 00:39:28;;;;;;;6.10;2.10;;;;;;;;;;5009579;28;90998;-75
2022/08/27 00:41:55;;;;;;;8.73;2.13;;;;;;;;;;5011747;28;90485;-76
2022/08/27 00:44:21;;;;;;;11.35;2.47;;;;;;;;;;5003066;28;90219;-75
2022/08/27 00:46:49;;;;;;;5.97;1.98;;;;;;;;;;5007692;28;89123;-75
2022/08/27 00:49:18;;;;;;;7.15;2.10;;;;;;;;;;5012874;28;89440;-76
2022/08/27 00:51:49;;;;;;;4.00;1.80;;;;;;;;;;5013306;28;90075;-76
2022/08/27 00:54:16;;;;;;;8.07;2.17;;;;;;;;;;5011895;28;89536;-76
2022/08/27 00:56:44;;;;;;;5.78;2.30;;;;;;;;;;5011353;28;91269;-75
2022/08/27 00:59:17;;;;;;;5.80;1.98;;;;;;;;;;4994919;28;90041;-76
2022/08/27 01:04:30;;;;;;;7.88;2.40;;;;;;;;;;4999435;28;89906;-76
2022/08/27 01:06:57;;;;;;;10.48;2.20;;;;;;;;;;5010691;28;90190;-76
2022/08/27 01:09:24;;;;;;;5.35;2.03;;;;;;;;;;5014218;28;88996;-76
2022/08/27 01:11:51;;;;;;;6.57;2.20;;;;;;;;;;5007637;28;89525;-75
2022/08/27 01:14:18;;;;;;;7.50;2.20;;;;;;;;;;5010246;28;88740;-75
2022/08/27 01:16:50;;;;;;;5.22;2.00;;;;;;;;;;5007229;28;89517;-75
2022/08/27 01:19:21;;;;;;;5.45;2.17;;;;;;;;;;5004099;28;90858;-75
2022/08/27 01:22:06;;;;;;;5.60;2.15;;;;;;;;;;5011721;28;89046;-75
2022/08/27 01:24:35;;;;;;;8.40;2.47;;;;;;;;;;5012370;28;89917;-75
2022/08/27 01:27:03;;;;;;;5.22;2.10;;;;;;;;;;5006280;28;90087;-75
2022/08/27 01:29:31;;;;;;;7.13;2.15;;;;;;;;;;4995623;28;89123;-74
2022/08/27 01:32:12;;;;;;;6.75;2.25;;;;;;;;;;5011686;28;90107;-75
2022/08/27 01:34:39;;;;;;;5.75;1.92;;;;;;;;;;5012400;28;88949;-75
2022/08/27 01:37:06;;;;;;;6.00;2.10;;;;;;;;;;4999538;28;89832;-75
2022/08/27 01:39:34;;;;;;;4.70;1.80;;;;;;;;;;5003177;28;90041;-75
2022/08/27 01:42:06;;;;;;;7.75;2.75;;;;;;;;;;5010959;28;88422;-75
2022/08/27 01:45:01;;;;;;;5.68;2.22;;;;;;;;;;5011420;28;89829;-75
2022/08/27 01:47:31;;;;;;;10.75;2.38;;;;;;;;;;5006142;28;90833;-75
2022/08/27 01:49:57;;;;;;;7.68;2.03;;;;;;;;;;5010764;28;88897;-75
2022/08/27 01:52:26;;;;;;;7.28;2.40;;;;;;;;;;5015083;28;89929;-75
2022/08/27 01:54:52;;;;;;;7.95;2.40;;;;;;;;;;5011315;28;88910;-75
2022/08/27 01:57:19;;;;;;;3.53;1.90;;;;;;;;;;5009622;28;89627;-75
2022/08/27 01:59:51;;;;;;;6.60;2.10;;;;;;;;;;5011146;28;90115;-74
2022/08/27 02:02:17;;;;;;;7.90;2.70;;;;;;;;;;4994154;28;88088;-75
2022/08/27 02:04:43;;;;;;;6.65;2.50;;;;;;;;;;5005191;28;89427;-75
2022/08/27 02:07:10;;;;;;;7.35;2.33;;;;;;;;;;5009375;28;89135;-76
2022/08/27 02:09:36;;;;;;;5.60;2.33;;;;;;;;;;5009793;28;89935;-75
2022/08/27 02:12:03;;;;;;;7.43;2.30;;;;;;;;;;5010815;28;90648;-76
2022/08/27 02:14:30;;;;;;;8.00;2.40;;;;;;;;;;5014731;28;90251;-75
2022/08/27 02:16:56;;;;;;;7.93;2.35;;;;;;;;;;4998944;28;89792;-76
2022/08/27 02:19:22;;;;;;;8.20;2.10;;;;;;;;;;5009937;28;89900;-75
2022/08/27 02:21:49;;;;;;;7.13;1.88;;;;;;;;;;5011366;28;89076;-75
2022/08/27 02:24:15;;;;;;;5.43;1.95;;;;;;;;;;5011644;28;90001;-75
2022/08/27 02:26:42;;;;;;;7.07;2.30;;;;;;;;;;5010706;28;89468;-75
2022/08/27 02:29:08;;;;;;;8.23;2.30;;;;;;;;;;5011094;28;88947;-76
2022/08/27 02:31:35;;;;;;;6.35;2.25;;;;;;;;;;5009704;28;90236;-75
2022/08/27 02:34:02;;;;;;;8.43;2.50;;;;;;;;;;5010215;28;91688;-75
2022/08/27 02:36:28;;;;;;;6.80;2.50;;;;;;;;;;5009210;28;90227;-75
2022/08/27 02:38:55;;;;;;;7.45;2.88;;;;;;;;;;5005296;28;89700;-76
2022/08/27 02:41:21;;;;;;;5.97;2.50;;;;;;;;;;5011248;28;89128;-76
2022/08/27 02:43:48;;;;;;;5.45;2.20;;;;;;;;;;4997120;28;90113;-76
2022/08/27 02:46:15;;;;;;;6.95;2.60;;;;;;;;;;5004264;28;89351;-75
2022/08/27 02:48:42;;;;;;;5.70;2.30;;;;;;;;;;5010733;28;89085;-75
2022/08/27 02:51:09;;;;;;;7.90;2.50;;;;;;;;;;5010299;28;90668;-75
2022/08/27 02:53:36;;;;;;;6.95;2.20;;;;;;;;;;5010665;28;89785;-75
2022/08/27 02:56:04;;;;;;;7.90;2.38;;;;;;;;;;5008576;28;89619;-75
2022/08/27 02:58:32;;;;;;;5.60;2.20;;;;;;;;;;5002223;28;89927;-75
2022/08/27 03:01:00;;;;;;;9.35;2.35;;;;;;;;;;5008687;28;90666;-75
2022/08/27 03:03:28;;;;;;;5.30;2.20;;;;;;;;;;5010694;28;89567;-75
2022/08/27 03:05:55;;;;;;;5.45;2.00;;;;;;;;;;5009567;28;89915;-74
2022/08/27 03:08:22;;;;;;;6.90;2.15;;;;;;;;;;5009390;28;89381;-74
2022/08/27 03:10:49;;;;;;;6.47;2.15;;;;;;;;;;5010661;28;89781;-76
2022/08/27 03:13:15;;;;;;;8.45;2.28;;;;;;;;;;5009661;28;89818;-76
2022/08/27 03:15:41;;;;;;;5.10;1.65;;;;;;;;;;5008700;28;88861;-75
2022/08/27 03:18:17;;;;;;;5.45;2.45;;;;;;;;;;5010200;28;89167;-75
2022/08/27 03:20:45;;;;;;;6.85;2.30;;;;;;;;;;5016328;28;89831;-74
2022/08/27 03:23:13;;;;;;;4.00;2.00;;;;;;;;;;5014209;28;89841;-74
2022/08/27 03:25:42;;;;;;;4.53;2.20;;;;;;;;;;5011439;28;90340;-76
2022/08/27 03:28:08;;;;;;;6.82;2.63;;;;;;;;;;5013789;28;88750;-76
2022/08/27 03:30:52;;;;;;;7.28;2.50;;;;;;;;;;5011176;28;90470;-76
2022/08/27 03:33:19;;;;;;;5.03;2.08;;;;;;;;;;5012233;28;90043;-75
2022/08/27 03:35:46;;;;;;;7.53;2.33;;;;;;;;;;5012673;28;89218;-75
2022/08/27 03:38:17;;;;;;;9.50;2.83;;;;;;;;;;5013569;28;90194;-75
2022/08/27 03:40:43;;;;;;;7.93;2.28;;;;;;;;;;5017266;28;89446;-75
2022/08/27 03:43:13;;;;;;;6.93;2.58;;;;;;;;;;5013318;28;89061;-76
2022/08/27 03:45:43;;;;;;;13.32;2.30;;;;;;;;;;5004755;28;89878;-76
2022/08/27 03:48:28;;;;;;;6.60;2.40;;;;;;;;;;5005594;28;89341;-75
2022/08/27 03:50:54;;;;;;;6.05;2.60;;;;;;;;;;5013024;28;90613;-76
2022/08/27 03:53:20;;;;;;;7.25;2.35;;;;;;;;;;5014216;28;89863;-76
2022/08/27 03:55:47;;;;;;;5.47;2.40;;;;;;;;;;5012192;28;88743;-75
2022/08/27 03:58:14;;;;;;;6.40;2.30;;;;;;;;;;5013764;28;89820;-76
2022/08/27 04:00:41;;;;;;;6.22;2.53;;;;;;;;;;5000947;28;90047;-75
2022/08/27 04:03:07;;;;;;;8.25;2.38;;;;;;;;;;5004104;28;88913;-75
2022/08/27 04:05:33;;;;;;;7.07;2.45;;;;;;;;;;5010080;28;89319;-76
2022/08/27 04:08:00;;;;;;;6.38;2.15;;;;;;;;;;5011022;28;89085;-76
2022/08/27 04:10:26;;;;;;;10.32;2.50;;;;;;;;;;4999630;28;89785;-75
2022/08/27 04:12:58;;;;;;;13.07;2.40;;;;;;;;;;5000949;28;90869;-75
2022/08/27 04:15:24;;;;;;;5.22;2.25;;;;;;;;;;5012065;28;88954;-75
2022/08/27 04:17:50;;;;;;;6.75;2.63;;;;;;;;;;5011419;28;89664;-75
2022/08/27 04:20:17;;;;;;;6.95;2.60;;;;;;;;;;5007996;28;89095;-75
2022/08/27 04:23:00;;;;;;;6.40;2.33;;;;;;;;;;4998648;28;88861;-75
2022/08/27 04:25:27;;;;;;;11.18;2.97;;;;;;;;;;5011110;28;89914;-76
2022/08/27 04:27:53;;;;;;;6.68;2.33;;;;;;;;;;5010843;28;88583;-75
2022/08/27 04:30:19;;;;;;;8.65;2.90;;;;;;;;;;4996901;28;89893;-75
2022/08/27 04:32:46;;;;;;;7.28;2.63;;;;;;;;;;5011664;28;90058;-75
2022/08/27 04:35:12;;;;;;;8.02;2.38;;;;;;;;;;5010988;28;89154;-75
2022/08/27 04:37:39;;;;;;;6.93;3.05;;;;;;;;;;4996533;27;90545;-75
2022/08/27 04:40:05;;;;;;;9.82;2.60;;;;;;;;;;5006144;28;90163;-75
2022/08/27 04:42:32;;;;;;;7.88;2.65;;;;;;;;;;5003849;28;88883;-74
2022/08/27 04:44:58;;;;;;;7.85;2.85;;;;;;;;;;5010251;28;90363;-75
2022/08/27 04:47:24;;;;;;;10.85;2.65;;;;;;;;;;5004277;28;89724;-76
2022/08/27 19:19:26;;;;;;;5.97;2.92;;;;;;;;;;5024607;27;86496;-76
2022/08/27 19:21:52;;;;;;;9.70;3.22;;;;;;;;;;5013696;28;87448;-77
2022/08/27 19:24:19;;;;;;;8.43;2.80;;;;;;;;;;5008279;28;88212;-76
2022/08/27 19:26:46;;;;;;;9.32;3.10;;;;;;;;;;4999893;28;88854;-77
2022/08/27 19:29:13;;;;;;;10.25;2.75;;;;;;;;;;5001452;28;89199;-76
2022/08/27 19:31:39;;;;;;;11.48;3.35;;;;;;;;;;5006932;28;88652;-76
2022/08/27 19:34:06;;;;;;;8.52;3.33;;;;;;;;;;5007341;28;88658;-75
2022/08/27 19:36:34;;;;;;;13.63;3.33;;;;;;;;;;5001991;28;88838;-74
2022/08/27 19:39:00;;;;;;;7.72;2.80;;;;;;;;;;5007251;28;88229;-77
2022/08/27 19:41:27;;;;;;;9.63;2.83;;;;;;;;;;5004417;28;89107;-77
2022/08/27 19:43:53;;;;;;;7.10;2.72;;;;;;;;;;5002616;28;88616;-76
2022/08/27 19:46:21;;;;;;;10.73;2.65;;;;;;;;;;5007610;28;88371;-75
2022/08/27 19:48:47;;;;;;;8.35;2.45;;;;;;;;;;5004177;28;88997;-76
2022/08/27 19:51:13;;;;;;;10.65;2.90;;;;;;;;;;4996292;28;88308;-76
2022/08/27 19:53:41;;;;;;;9.43;3.20;;;;;;;;;;5001036;28;88602;-76
2022/08/27 19:56:08;;;;;;;6.97;3.10;;;;;;;;;;5006033;28;88948;-77
2022/08/27 19:58:34;;;;;;;6.90;3.50;;;;;;;;;;5016422;28;88160;-77
2022/08/27 20:01:01;;;;;;;9.90;3.15;;;;;;;;;;4999034;27;88896;-77
2022/08/27 20:03:27;;;;;;;10.57;3.00;;;;;;;;;;4999797;28;88298;-77
2022/08/27 20:05:54;;;;;;;7.68;2.75;;;;;;;;;;5005018;28;88633;-78
2022/08/27 20:08:20;;;;;;;10.25;3.10;;;;;;;;;;5007919;28;88831;-76
2022/08/27 20:10:46;;;;;;;8.23;2.65;;;;;;;;;;5005384;28;88183;-76
2022/08/27 20:13:13;;;;;;;12.23;2.70;;;;;;;;;;5000846;28;89145;-77
2022/08/27 20:15:39;;;;;;;13.68;3.35;;;;;;;;;;5003282;28;89150;-77
2022/08/27 20:18:06;;;;;;;10.15;2.83;;;;;;;;;;4994954;28;88783;-77
2022/08/27 20:20:34;;;;;;;11.27;3.17;;;;;;;;;;4993127;28;88885;-77
2022/08/27 20:23:04;;;;;;;7.82;3.05;;;;;;;;;;5002912;28;89067;-77
2022/08/27 20:25:30;;;;;;;7.75;2.90;;;;;;;;;;5005772;28;89972;-77
2022/08/27 20:27:57;;;;;;;16.27;3.40;;;;;;;;;;5006489;28;88951;-76
2022/08/27 20:30:24;;;;;;;7.30;3.20;;;;;;;;;;4994503;28;88182;-76
2022/08/27 20:32:51;;;;;;;10.30;2.90;;;;;;;;;;4989534;28;88668;-76
2022/08/27 20:35:18;;;;;;;11.77;3.35;;;;;;;;;;5007568;28;88226;-76
2022/08/27 20:37:45;;;;;;;7.60;3.25;;;;;;;;;;5009065;28;88305;-77
2022/08/27 20:40:22;;;;;;;19.02;8.18;;;;;;;;;;4995031;28;88940;-76
2022/08/27 20:42:49;;;;;;;9.90;4.80;;;;;;;;;;4991803;28;89179;-77
2022/08/27 20:45:15;;;;;;;13.48;4.65;;;;;;;;;;4996329;28;87801;-76
2022/08/27 20:47:42;;;;;;;19.25;11.85;;;;;;;;;;4994496;28;88928;-77
2022/08/27 20:50:09;;;;;;;16.55;7.90;;;;;;;;;;4991624;28;90548;-76
2022/08/27 20:52:37;;;;;;;13.40;3.60;;;;;;;;;;4990407;28;87920;-76
2022/08/27 20:55:04;;;;;;;10.85;4.78;;;;;;;;;;4993932;28;88956;-76
2022/08/27 20:57:30;;;;;;;7.53;3.42;;;;;;;;;;4993750;28;88163;-76
2022/08/27 21:02:41;;;;;;;13.38;5.07;;;;;;;;;;4986217;28;89180;-76
2022/08/27 21:05:09;;;;;;;9.48;3.63;;;;;;;;;;4988855;28;88255;-77
2022/08/27 21:07:35;;;;;;;21.98;6.00;;;;;;;;;;4996740;28;88308;-75
2022/08/27 21:10:02;;;;;;;10.65;3.55;;;;;;;;;;4992471;28;88393;-75
2022/08/27 21:12:29;;;;;;;10.07;4.47;;;;;;;;;;4990716;28;89208;-76
2022/08/27 21:14:56;;;;;;;11.50;4.05;;;;;;;;;;4993428;28;89145;-75
2022/08/27 21:17:24;;;;;;;11.68;3.80;;;;;;;;;;4993879;28;88319;-76
2022/08/27 21:19:51;;;;;;;12.77;5.07;;;;;;;;;;4990209;28;87951;-77
2022/08/27 21:22:18;;;;;;;10.48;4.95;;;;;;;;;;4976134;28;89551;-76
2022/08/27 21:24:46;;;;;;;13.48;6.22;;;;;;;;;;4978883;28;88560;-76
2022/08/27 21:27:13;;;;;;;14.70;5.20;;;;;;;;;;4994279;28;88710;-76
2022/08/27 21:29:39;;;;;;;10.25;5.35;;;;;;;;;;4991660;28;87553;-76
2022/08/27 21:32:06;;;;;;;13.88;6.47;;;;;;;;;;5020207;28;88803;-77
2022/08/27 21:34:32;;;;;;;11.13;4.50;;;;;;;;;;4993863;28;89133;-76
2022/08/27 21:36:58;;;;;;;12.38;4.22;;;;;;;;;;4993252;28;88333;-77
2022/08/27 21:39:24;;;;;;;12.68;7.70;;;;;;;;;;4989859;28;88198;-77
2022/08/27 21:41:51;;;;;;;26.60;12.57;;;;;;;;;;4990573;28;88780;-76
2022/08/27 21:44:17;;;;;;;13.27;5.35;;;;;;;;;;4973892;28;90668;-76
2022/08/27 21:46:43;;;;;;;15.15;6.38;;;;;;;;;;4974295;28;88661;-76
2022/08/27 21:49:10;;;;;;;14.90;6.68;;;;;;;;;;4984062;28;89214;-75
2022/08/27 21:51:37;;;;;;;33.30;21.23;;;;;;;;;;4992728;28;88902;-76
2022/08/27 21:54:03;;;;;;;16.00;7.80;;;;;;;;;;4984126;28;89166;-77
2022/08/27 21:56:30;;;;;;;16.73;6.95;;;;;;;;;;4993510;28;88355;-77
2022/08/27 21:58:56;;;;;;;13.48;6.88;;;;;;;;;;4990899;28;88100;-77
2022/08/27 22:01:23;;;;;;;11.82;5.10;;;;;;;;;;4990021;28;89050;-76
2022/08/27 22:03:49;;;;;;;13.85;4.93;;;;;;;;;;4993059;28;88382;-75
2022/08/27 22:06:16;;;;;;;11.07;6.07;;;;;;;;;;4993405;28;88936;-76
2022/08/27 22:08:42;;;;;;;13.77;5.65;;;;;;;;;;4989472;28;89057;-76
2022/08/27 22:11:09;;;;;;;18.55;5.03;;;;;;;;;;4998710;28;88624;-76
2022/08/27 22:13:36;;;;;;;12.52;5.57;;;;;;;;;;5013214;28;89240;-76
2022/08/27 22:16:02;;;;;;;18.50;5.50;;;;;;;;;;4997391;28;87597;-75
2022/08/27 22:18:29;;;;;;;18.40;9.88;;;;;;;;;;4975119;28;88308;-76
2022/08/27 22:20:57;;;;;;;19.73;10.00;;;;;;;;;;4990003;28;89154;-76
2022/08/27 22:23:23;;;;;;;14.65;5.80;;;;;;;;;;4991676;28;90631;-76
2022/08/27 22:25:50;;;;;;;12.57;4.20;;;;;;;;;;4992723;28;88382;-76
2022/08/27 22:28:16;;;;;;;19.38;8.50;;;;;;;;;;4975119;28;89060;-76
2022/08/27 22:30:44;;;;;;;21.58;11.00;;;;;;;;;;4992940;28;87282;-77
2022/08/27 22:33:11;;;;;;;14.65;7.40;;;;;;;;;;4994521;28;89709;-76
2022/08/27 22:35:37;;;;;;;14.50;6.80;;;;;;;;;;4990589;28;88681;-76
2022/08/27 22:38:04;;;;;;;16.88;9.27;;;;;;;;;;4990941;28;87511;-75
2022/08/27 22:40:31;;;;;;;27.00;17.25;;;;;;;;;;4991340;28;89294;-78
2022/08/27 22:42:58;;;;;;;17.58;8.00;;;;;;;;;;5009512;28;90619;-75
2022/08/27 22:45:25;;;;;;;10.88;4.57;;;;;;;;;;4991474;28;88536;-75
2022/08/27 22:47:51;;;;;;;18.02;8.95;;;;;;;;;;4992668;28;88565;-76
2022/08/27 22:50:18;;;;;;;14.70;5.10;;;;;;;;;;4989911;28;88242;-76
2022/08/27 22:52:44;;;;;;;16.58;8.93;;;;;;;;;;4986762;28;88324;-76
2022/08/27 22:55:13;;;;;;;15.82;7.97;;;;;;;;;;4995695;28;88768;-75
2022/08/27 22:57:40;;;;;;;19.13;7.30;;;;;;;;;;4992427;28;87363;-75
2022/08/27 23:00:10;;;;;;;29.75;15.65;;;;;;;;;;4976796;28;88878;-77
2022/08/27 23:02:36;;;;;;;21.85;12.85;;;;;;;;;;4970830;28;90010;-77
2022/08/27 23:05:03;;;;;;;16.50;5.05;;;;;;;;;;4983001;28;89829;-76
2022/08/27 23:07:32;;;;;;;17.40;5.13;;;;;;;;;;4991337;28;91468;-75
2022/08/27 23:09:58;;;;;;;13.50;4.32;;;;;;;;;;4973895;28;88042;-75
2022/08/27 23:12:24;;;;;;;14.55;4.00;;;;;;;;;;4986234;28;88147;-76
2022/08/27 23:14:51;;;;;;;11.20;3.92;;;;;;;;;;5003293;28;88963;-75
2022/08/27 23:17:18;;;;;;;13.27;4.15;;;;;;;;;;5014535;28;88167;-75
2022/08/27 23:19:44;;;;;;;13.00;4.70;;;;;;;;;;4992097;28;88678;-77
2022/08/27 23:22:11;;;;;;;16.75;5.30;;;;;;;;;;4990075;28;88386;-75
2022/08/27 23:27:27;;;;;;;12.48;5.88;;;;;;;;;;4999836;28;89810;-77
2022/08/27 23:27:30;;;;;;;12.20;4.88;;;;;;;;;;5011735;28;89389;-76
2022/08/27 23:29:57;;;;;;;13.77;4.72;;;;;;;;;;4987989;28;88606;-76
2022/08/27 23:32:23;;;;;;;12.32;4.97;;;;;;;;;;5014636;22;90072;-76
2022/08/27 23:34:49;;;;;;;10.85;4.82;;;;;;;;;;5007640;28;88919;-76
2022/08/27 23:37:16;;;;;;;15.95;4.07;;;;;;;;;;5011022;28;90755;-76
2022/08/27 23:39:42;;;;;;;16.52;4.82;;;;;;;;;;5008689;28;89045;-77
2022/08/27 23:42:09;;;;;;;11.80;4.65;;;;;;;;;;5010459;28;89910;-77
2022/08/27 23:44:36;;;;;;;11.02;4.40;;;;;;;;;;5010454;28;89619;-76
2022/08/27 23:47:02;;;;;;;18.63;4.00;;;;;;;;;;5005832;28;89023;-76
2022/08/27 23:49:29;;;;;;;12.30;5.13;;;;;;;;;;5009267;28;90263;-76
2022/08/27 23:51:56;;;;;;;16.60;5.18;;;;;;;;;;5010250;28;88398;-76
2022/08/27 23:54:22;;;;;;;12.00;4.32;;;;;;;;;;5009658;28;89035;-76
2022/08/27 23:56:49;;;;;;;11.68;4.55;;;;;;;;;;5008975;28;89528;-76
2022/08/27 23:59:15;;;;;;;497.58;336.45;;;;;;;;;;5009601;28;90838;-76
